createdAt,value
2017-05-06T00:00:05.125Z,22.78
2017-05-06T00:00:37.417Z,22.84
2017-05-06T00:01:09.685Z,22.85
2017-05-06T00:01:42.615Z,22.84
2017-05-06T00:02:14.884Z,22.89
2017-05-06T00:02:47.153Z,22.82
2017-05-06T00:03:19.426Z,22.78
2017-05-06T00:03:51.683Z,22.76
2017-05-06T00:04:24.739Z,22.85
2017-05-06T00:04:57.006Z,22.78
2017-05-06T00:05:29.251Z,22.86
2017-05-06T00:06:01.524Z,22.85
2017-05-06T00:06:33.845Z,22.85
2017-05-06T00:07:06.103Z,22.86
2017-05-06T00:07:39.351Z,22.82
2017-05-06T00:08:11.630Z,22.82
2017-05-06T00:08:44.018Z,22.85
2017-05-06T00:09:16.290Z,22.89
2017-05-06T00:09:48.579Z,22.84
2017-05-06T00:10:20.870Z,22.84
2017-05-06T00:10:53.139Z,22.82
2017-05-06T00:11:26.234Z,22.79
2017-05-06T00:11:58.513Z,22.82
2017-05-06T00:12:30.807Z,22.84
2017-05-06T00:13:03.119Z,22.85
2017-05-06T00:13:35.422Z,22.85
2017-05-06T00:14:07.748Z,22.82
2017-05-06T00:14:40.058Z,22.76
2017-05-06T00:15:26.914Z,22.81
2017-05-06T00:15:59.299Z,22.85
2017-05-06T00:16:31.679Z,22.78
2017-05-06T00:17:04.058Z,22.81
2017-05-06T00:17:36.468Z,22.82
2017-05-06T00:18:08.868Z,22.79
2017-05-06T00:18:41.261Z,22.85
2017-05-06T00:19:13.651Z,22.82
2017-05-06T00:19:45.938Z,22.84
2017-05-06T00:20:18.225Z,22.84
2017-05-06T00:20:50.526Z,22.85
2017-05-06T00:21:22.879Z,22.85
2017-05-06T00:21:55.281Z,22.82
2017-05-06T00:22:27.650Z,22.82
2017-05-06T00:22:59.916Z,22.79
2017-05-06T00:23:32.215Z,22.86
2017-05-06T00:24:04.484Z,22.85
2017-05-06T00:24:36.764Z,22.85
2017-05-06T00:25:09.029Z,22.85
2017-05-06T00:25:41.306Z,22.85
2017-05-06T00:26:13.602Z,22.79
2017-05-06T00:26:45.980Z,22.85
2017-05-06T00:27:18.259Z,22.84
2017-05-06T00:27:50.527Z,22.79
2017-05-06T00:28:23.338Z,22.88
2017-05-06T00:28:55.727Z,22.85
2017-05-06T00:29:28.012Z,22.84
2017-05-06T00:30:00.265Z,22.85
2017-05-06T00:30:32.546Z,22.81
2017-05-06T00:31:05.337Z,22.88
2017-05-06T00:31:37.618Z,22.79
2017-05-06T00:32:10.731Z,22.85
2017-05-06T00:32:43.031Z,22.82
2017-05-06T00:33:15.331Z,22.82
2017-05-06T00:33:47.603Z,22.82
2017-05-06T00:34:19.888Z,22.82
2017-05-06T00:34:52.708Z,22.85
2017-05-06T00:35:25.008Z,22.85
2017-05-06T00:35:57.292Z,22.79
2017-05-06T00:36:29.575Z,22.85
2017-05-06T00:37:01.945Z,22.81
2017-05-06T00:37:34.230Z,22.79
2017-05-06T00:38:06.497Z,22.81
2017-05-06T00:38:38.756Z,22.79
2017-05-06T00:39:11.026Z,22.78
2017-05-06T00:39:43.381Z,22.85
2017-05-06T00:40:15.672Z,22.84
2017-05-06T00:40:47.942Z,22.84
2017-05-06T00:41:20.228Z,22.86
2017-05-06T00:41:52.531Z,22.85
2017-05-06T00:42:24.836Z,22.89
2017-05-06T00:42:57.235Z,22.88
2017-05-06T00:43:29.616Z,22.84
2017-05-06T00:44:02.019Z,22.82
2017-05-06T00:44:34.411Z,22.85
2017-05-06T00:45:06.805Z,22.82
2017-05-06T00:45:39.192Z,22.84
2017-05-06T00:46:11.580Z,22.81
2017-05-06T00:46:43.976Z,22.86
2017-05-06T00:47:16.368Z,22.82
2017-05-06T00:47:48.749Z,22.82
2017-05-06T00:48:21.144Z,22.86
2017-05-06T00:48:53.529Z,22.86
2017-05-06T00:49:25.929Z,22.81
2017-05-06T00:49:58.309Z,22.81
2017-05-06T00:50:30.718Z,22.89
2017-05-06T00:51:03.130Z,22.85
2017-05-06T00:51:35.521Z,22.89
2017-05-06T00:52:07.890Z,22.89
2017-05-06T00:52:40.268Z,22.79
2017-05-06T00:53:12.657Z,22.88
2017-05-06T00:53:45.024Z,22.86
2017-05-06T00:54:17.418Z,22.79
2017-05-06T00:54:49.804Z,22.91
2017-05-06T00:55:22.204Z,22.82
2017-05-06T00:55:54.598Z,22.86
2017-05-06T00:56:27.005Z,22.85
2017-05-06T00:56:59.375Z,22.89
2017-05-06T00:57:31.771Z,22.86
2017-05-06T00:58:04.162Z,22.92
2017-05-06T00:58:36.573Z,22.82
2017-05-06T00:59:08.976Z,22.82
2017-05-06T00:59:41.384Z,22.84
2017-05-06T01:00:13.776Z,22.88
2017-05-06T01:00:46.152Z,22.88
2017-05-06T01:01:18.572Z,22.86
2017-05-06T01:01:50.983Z,22.85
2017-05-06T01:02:23.396Z,22.89
2017-05-06T01:02:55.786Z,22.86
2017-05-06T01:03:28.159Z,22.91
2017-05-06T01:04:00.552Z,22.89
2017-05-06T01:04:32.941Z,22.81
2017-05-06T01:05:05.324Z,22.82
2017-05-06T01:05:37.725Z,22.78
2017-05-06T01:06:10.093Z,22.88
2017-05-06T01:06:42.463Z,22.84
2017-05-06T01:07:14.850Z,22.85
2017-05-06T01:07:47.247Z,22.89
2017-05-06T01:08:19.634Z,22.89
2017-05-06T01:08:52.024Z,22.88
2017-05-06T01:09:24.451Z,22.86
2017-05-06T01:09:56.841Z,22.91
2017-05-06T01:10:29.216Z,22.85
2017-05-06T01:11:01.592Z,22.86
2017-05-06T01:11:33.985Z,22.89
2017-05-06T01:12:06.360Z,22.88
2017-05-06T01:12:38.641Z,22.82
2017-05-06T01:13:10.943Z,22.91
2017-05-06T01:13:43.236Z,22.88
2017-05-06T01:14:15.522Z,22.86
2017-05-06T01:14:47.775Z,22.85
2017-05-06T01:15:20.197Z,22.85
2017-05-06T01:15:52.456Z,22.82
2017-05-06T01:16:24.726Z,22.92
2017-05-06T01:16:56.995Z,22.89
2017-05-06T01:17:30.212Z,22.82
2017-05-06T01:18:02.478Z,22.82
2017-05-06T01:18:35.321Z,22.79
2017-05-06T01:19:07.611Z,22.89
2017-05-06T01:19:39.881Z,22.89
2017-05-06T01:20:12.192Z,22.86
2017-05-06T01:20:44.487Z,22.86
2017-05-06T01:21:16.769Z,22.91
2017-05-06T01:21:49.045Z,22.86
2017-05-06T01:22:21.353Z,22.82
2017-05-06T01:22:53.759Z,22.84
2017-05-06T01:23:26.130Z,22.86
2017-05-06T01:23:58.516Z,22.84
2017-05-06T01:24:30.926Z,22.89
2017-05-06T01:25:03.301Z,22.86
2017-05-06T01:25:35.698Z,22.85
2017-05-06T01:26:08.086Z,22.94
2017-05-06T01:26:40.471Z,22.82
2017-05-06T01:27:12.855Z,22.88
2017-05-06T01:27:45.239Z,22.89
2017-05-06T01:28:17.629Z,22.85
2017-05-06T01:28:50.028Z,22.78
2017-05-06T01:29:22.417Z,22.82
2017-05-06T01:29:54.812Z,22.86
2017-05-06T01:30:27.210Z,22.92
2017-05-06T01:30:59.600Z,22.82
2017-05-06T01:31:31.988Z,22.86
2017-05-06T01:32:04.348Z,22.86
2017-05-06T01:32:36.627Z,22.85
2017-05-06T01:33:08.904Z,22.91
2017-05-06T01:33:41.173Z,22.91
2017-05-06T01:34:14.277Z,22.88
2017-05-06T01:34:46.562Z,22.86
2017-05-06T01:35:18.869Z,22.89
2017-05-06T01:35:51.147Z,22.89
2017-05-06T01:36:24.315Z,22.86
2017-05-06T01:36:57.371Z,22.88
2017-05-06T01:37:29.653Z,22.85
2017-05-06T01:38:01.918Z,22.86
2017-05-06T01:38:34.202Z,22.88
2017-05-06T01:39:06.499Z,22.92
2017-05-06T01:39:38.783Z,22.78
2017-05-06T01:40:11.833Z,22.86
2017-05-06T01:40:44.108Z,22.86
2017-05-06T01:41:16.370Z,22.79
2017-05-06T01:41:48.627Z,22.82
2017-05-06T01:42:20.913Z,22.82
2017-05-06T01:42:53.244Z,22.91
2017-05-06T01:43:25.577Z,22.82
2017-05-06T01:43:57.900Z,22.89
2017-05-06T01:44:30.228Z,22.84
2017-05-06T01:45:02.530Z,22.89
2017-05-06T01:45:34.839Z,22.82
2017-05-06T01:46:07.135Z,22.81
2017-05-06T01:46:39.456Z,22.82
2017-05-06T01:47:11.777Z,22.81
2017-05-06T01:47:44.081Z,22.82
2017-05-06T01:48:16.401Z,22.85
2017-05-06T01:48:48.711Z,22.85
2017-05-06T01:49:21.059Z,22.86
2017-05-06T01:49:53.383Z,22.82
2017-05-06T01:50:25.719Z,22.88
2017-05-06T01:50:58.031Z,22.85
2017-05-06T01:51:30.337Z,22.88
2017-05-06T01:52:02.649Z,22.79
2017-05-06T01:52:34.972Z,22.89
2017-05-06T01:53:07.289Z,22.86
2017-05-06T01:53:39.590Z,22.89
2017-05-06T01:54:11.908Z,22.82
2017-05-06T01:54:44.218Z,22.82
2017-05-06T01:55:16.517Z,22.81
2017-05-06T01:55:48.826Z,22.86
2017-05-06T01:56:21.134Z,22.88
2017-05-06T01:56:53.444Z,22.82
2017-05-06T01:57:25.752Z,22.82
2017-05-06T01:57:58.061Z,22.85
2017-05-06T01:58:30.413Z,22.81
2017-05-06T01:59:02.718Z,22.86
2017-05-06T01:59:35.030Z,22.88
2017-05-06T02:00:07.335Z,22.92
2017-05-06T02:00:39.685Z,22.84
2017-05-06T02:01:11.992Z,22.78
2017-05-06T02:01:44.317Z,22.86
2017-05-06T02:02:16.622Z,22.82
2017-05-06T02:02:48.920Z,22.86
2017-05-06T02:03:21.250Z,22.88
2017-05-06T02:03:53.574Z,22.81
2017-05-06T02:04:25.875Z,22.84
2017-05-06T02:04:58.193Z,22.85
2017-05-06T02:05:30.508Z,22.88
2017-05-06T02:06:02.849Z,22.85
2017-05-06T02:06:35.171Z,22.82
2017-05-06T02:07:07.483Z,22.79
2017-05-06T02:07:39.789Z,22.88
2017-05-06T02:08:12.115Z,22.89
2017-05-06T02:08:44.419Z,22.81
2017-05-06T02:09:16.727Z,22.89
2017-05-06T02:09:49.077Z,22.86
2017-05-06T02:10:21.417Z,22.82
2017-05-06T02:10:53.715Z,22.89
2017-05-06T02:11:26.032Z,22.85
2017-05-06T02:11:58.331Z,22.82
2017-05-06T02:12:30.664Z,22.81
2017-05-06T02:13:02.979Z,22.85
2017-05-06T02:13:35.274Z,22.88
2017-05-06T02:14:07.592Z,22.82
2017-05-06T02:14:39.903Z,22.81
2017-05-06T02:15:12.207Z,22.81
2017-05-06T02:15:44.495Z,22.82
2017-05-06T02:16:16.815Z,22.85
2017-05-06T02:16:49.143Z,22.85
2017-05-06T02:17:21.439Z,22.81
2017-05-06T02:17:53.745Z,22.81
2017-05-06T02:18:26.087Z,22.81
2017-05-06T02:18:58.379Z,22.84
2017-05-06T02:19:30.688Z,22.82
2017-05-06T02:20:02.994Z,22.82
2017-05-06T02:20:35.314Z,22.82
2017-05-06T02:21:07.626Z,22.85
2017-05-06T02:21:39.929Z,22.79
2017-05-06T02:22:12.240Z,22.81
2017-05-06T02:22:44.508Z,22.81
2017-05-06T02:23:16.765Z,22.85
2017-05-06T02:23:49.049Z,22.79
2017-05-06T02:24:21.319Z,22.82
2017-05-06T02:24:53.614Z,22.85
2017-05-06T02:25:25.896Z,22.88
2017-05-06T02:25:58.171Z,22.89
2017-05-06T02:26:30.450Z,22.85
2017-05-06T02:27:02.714Z,22.82
2017-05-06T02:27:34.988Z,22.78
2017-05-06T02:28:07.253Z,22.82
2017-05-06T02:28:39.522Z,22.82
2017-05-06T02:29:11.797Z,22.82
2017-05-06T02:29:44.077Z,22.86
2017-05-06T02:30:16.344Z,22.85
2017-05-06T02:30:48.605Z,22.78
2017-05-06T02:31:20.881Z,22.85
2017-05-06T02:31:53.159Z,22.81
2017-05-06T02:32:26.195Z,22.84
2017-05-06T02:32:58.449Z,22.85
2017-05-06T02:33:30.827Z,22.82
2017-05-06T02:34:03.141Z,22.81
2017-05-06T02:34:35.413Z,22.86
2017-05-06T02:35:07.694Z,22.81
2017-05-06T02:35:39.971Z,22.88
2017-05-06T02:36:12.254Z,22.78
2017-05-06T02:36:44.534Z,22.82
2017-05-06T02:37:16.811Z,22.86
2017-05-06T02:37:49.966Z,22.88
2017-05-06T02:38:22.248Z,22.81
2017-05-06T02:38:54.607Z,22.81
2017-05-06T02:39:26.860Z,22.82
2017-05-06T02:39:59.133Z,22.79
2017-05-06T02:40:31.401Z,22.81
2017-05-06T02:41:03.671Z,22.84
2017-05-06T02:41:35.955Z,22.85
2017-05-06T02:42:08.248Z,22.84
2017-05-06T02:42:40.559Z,22.79
2017-05-06T02:43:12.863Z,22.82
2017-05-06T02:43:45.167Z,22.86
2017-05-06T02:44:17.480Z,22.82
2017-05-06T02:44:49.794Z,22.84
2017-05-06T02:45:22.116Z,22.81
2017-05-06T02:45:54.421Z,22.86
2017-05-06T02:46:26.718Z,22.82
2017-05-06T02:46:59.024Z,22.86
2017-05-06T02:47:31.334Z,22.82
2017-05-06T02:48:03.662Z,22.79
2017-05-06T02:48:35.971Z,22.85
2017-05-06T02:49:08.299Z,22.89
2017-05-06T02:49:40.613Z,22.88
2017-05-06T02:50:12.923Z,22.86
2017-05-06T02:50:45.236Z,22.78
2017-05-06T02:51:17.571Z,22.82
2017-05-06T02:51:49.874Z,22.86
2017-05-06T02:52:22.181Z,22.86
2017-05-06T02:52:54.496Z,22.78
2017-05-06T02:53:26.797Z,22.78
2017-05-06T02:53:59.123Z,22.86
2017-05-06T02:54:31.435Z,22.85
2017-05-06T02:55:03.747Z,22.81
2017-05-06T02:55:36.082Z,22.86
2017-05-06T02:56:08.381Z,22.84
2017-05-06T02:56:40.683Z,22.88
2017-05-06T02:57:12.984Z,22.85
2017-05-06T02:57:45.304Z,22.85
2017-05-06T02:58:17.642Z,22.84
2017-05-06T02:58:49.962Z,22.85
2017-05-06T02:59:22.290Z,22.88
2017-05-06T02:59:54.584Z,22.86
2017-05-06T03:00:26.896Z,22.85
2017-05-06T03:00:59.215Z,22.85
2017-05-06T03:01:31.551Z,22.88
2017-05-06T03:02:03.852Z,22.88
2017-05-06T03:02:37.362Z,22.86
2017-05-06T03:03:09.640Z,22.85
2017-05-06T03:03:41.882Z,22.85
2017-05-06T03:04:14.784Z,22.85
2017-05-06T03:04:47.066Z,22.85
2017-05-06T03:05:19.366Z,22.88
2017-05-06T03:05:51.616Z,22.85
2017-05-06T03:06:23.882Z,22.84
2017-05-06T03:06:56.166Z,22.79
2017-05-06T03:07:28.445Z,22.82
2017-05-06T03:08:00.752Z,22.85
2017-05-06T03:08:33.032Z,22.76
2017-05-06T03:09:05.322Z,22.84
2017-05-06T03:09:38.347Z,22.81
2017-05-06T03:10:10.611Z,22.86
2017-05-06T03:10:42.895Z,22.81
2017-05-06T03:11:15.177Z,22.86
2017-05-06T03:11:47.451Z,22.81
2017-05-06T03:12:19.721Z,22.81
2017-05-06T03:12:51.994Z,22.84
2017-05-06T03:13:24.366Z,22.86
2017-05-06T03:13:56.636Z,22.82
2017-05-06T03:14:28.891Z,22.85
2017-05-06T03:15:01.164Z,22.79
2017-05-06T03:15:33.433Z,22.78
2017-05-06T03:16:05.793Z,22.86
2017-05-06T03:16:38.063Z,22.81
2017-05-06T03:17:10.491Z,22.78
2017-05-06T03:17:42.879Z,22.79
2017-05-06T03:18:15.152Z,22.81
2017-05-06T03:18:47.432Z,22.85
2017-05-06T03:19:19.854Z,22.84
2017-05-06T03:19:52.127Z,22.85
2017-05-06T03:20:24.527Z,22.82
2017-05-06T03:20:57.383Z,22.82
2017-05-06T03:21:29.657Z,22.85
2017-05-06T03:22:01.921Z,22.78
2017-05-06T03:22:34.209Z,22.85
2017-05-06T03:23:07.314Z,22.82
2017-05-06T03:23:39.593Z,22.85
2017-05-06T03:24:11.940Z,22.81
2017-05-06T03:24:44.214Z,22.78
2017-05-06T03:25:16.481Z,22.85
2017-05-06T03:25:48.731Z,22.82
2017-05-06T03:26:21.009Z,22.82
2017-05-06T03:26:53.287Z,22.82
2017-05-06T03:27:25.568Z,22.78
2017-05-06T03:27:57.850Z,22.81
2017-05-06T03:28:30.145Z,22.82
2017-05-06T03:29:02.427Z,22.88
2017-05-06T03:29:35.401Z,22.76
2017-05-06T03:30:07.684Z,22.81
2017-05-06T03:30:40.063Z,22.85
2017-05-06T03:31:12.328Z,22.84
2017-05-06T03:31:44.587Z,22.78
2017-05-06T03:32:16.869Z,22.82
2017-05-06T03:32:49.132Z,22.85
2017-05-06T03:33:22.347Z,22.81
2017-05-06T03:33:54.610Z,22.86
2017-05-06T03:34:26.904Z,22.85
2017-05-06T03:34:59.188Z,22.7
2017-05-06T03:35:31.453Z,22.86
2017-05-06T03:36:03.712Z,22.84
2017-05-06T03:36:35.992Z,22.86
2017-05-06T03:37:08.279Z,22.82
2017-05-06T03:37:40.545Z,22.82
2017-05-06T03:38:12.830Z,22.82
2017-05-06T03:38:45.121Z,22.85
2017-05-06T03:39:17.419Z,22.84
2017-05-06T03:39:49.712Z,22.85
2017-05-06T03:40:21.982Z,22.85
2017-05-06T03:40:54.281Z,22.85
2017-05-06T03:41:26.563Z,22.84
2017-05-06T03:41:59.397Z,22.7
2017-05-06T03:42:31.670Z,22.85
2017-05-06T03:43:03.946Z,22.82
2017-05-06T03:43:36.218Z,22.82
2017-05-06T03:44:08.546Z,22.84
2017-05-06T03:44:40.827Z,22.85
2017-05-06T03:45:13.117Z,22.85
2017-05-06T03:45:45.380Z,22.81
2017-05-06T03:46:17.654Z,22.86
2017-05-06T03:46:50.861Z,22.84
2017-05-06T03:47:23.141Z,22.88
2017-05-06T03:47:55.445Z,22.85
2017-05-06T03:48:27.728Z,22.85
2017-05-06T03:49:00.022Z,22.85
2017-05-06T03:49:32.293Z,22.86
2017-05-06T03:50:04.589Z,22.81
2017-05-06T03:50:36.862Z,22.84
2017-05-06T03:51:09.147Z,22.85
2017-05-06T03:51:41.456Z,22.85
2017-05-06T03:52:14.345Z,22.81
2017-05-06T03:52:46.610Z,22.85
2017-05-06T03:53:18.895Z,22.81
2017-05-06T03:53:51.171Z,22.84
2017-05-06T03:54:23.539Z,22.82
2017-05-06T03:54:55.837Z,22.85
2017-05-06T03:55:28.110Z,22.81
2017-05-06T03:56:00.389Z,22.79
2017-05-06T03:56:32.624Z,22.89
2017-05-06T03:57:05.032Z,22.84
2017-05-06T03:57:37.303Z,22.88
2017-05-06T03:58:09.594Z,22.88
2017-05-06T03:58:41.894Z,22.81
2017-05-06T03:59:14.177Z,22.86
2017-05-06T03:59:46.431Z,22.91
2017-05-06T04:00:18.687Z,22.88
2017-05-06T04:00:50.964Z,22.84
2017-05-06T04:01:23.236Z,22.85
2017-05-06T04:01:55.515Z,22.82
2017-05-06T04:02:27.787Z,22.82
2017-05-06T04:03:00.098Z,22.85
2017-05-06T04:03:32.380Z,22.92
2017-05-06T04:04:04.674Z,22.88
2017-05-06T04:04:36.977Z,22.89
2017-05-06T04:05:09.250Z,22.89
2017-05-06T04:05:41.528Z,22.85
2017-05-06T04:06:13.787Z,22.89
2017-05-06T04:06:46.150Z,22.89
2017-05-06T04:07:18.439Z,22.89
2017-05-06T04:07:50.697Z,22.89
2017-05-06T04:08:22.984Z,23.03
2017-05-06T04:08:55.247Z,22.88
2017-05-06T04:09:27.522Z,22.92
2017-05-06T04:09:59.880Z,22.92
2017-05-06T04:10:32.154Z,22.89
2017-05-06T04:11:04.455Z,22.91
2017-05-06T04:11:36.734Z,22.88
2017-05-06T04:12:08.992Z,22.86
2017-05-06T04:12:41.343Z,22.92
2017-05-06T04:13:13.656Z,22.89
2017-05-06T04:13:45.968Z,22.89
2017-05-06T04:14:18.277Z,22.92
2017-05-06T04:14:50.591Z,22.91
2017-05-06T04:15:22.903Z,22.91
2017-05-06T04:15:55.205Z,22.96
2017-05-06T04:16:27.510Z,22.91
2017-05-06T04:16:59.818Z,22.91
2017-05-06T04:17:32.110Z,22.92
2017-05-06T04:18:04.463Z,22.91
2017-05-06T04:18:36.775Z,22.94
2017-05-06T04:19:09.069Z,22.86
2017-05-06T04:19:41.372Z,22.89
2017-05-06T04:20:13.669Z,22.97
2017-05-06T04:20:45.946Z,22.89
2017-05-06T04:21:18.234Z,22.92
2017-05-06T04:21:50.522Z,22.99
2017-05-06T04:22:22.808Z,22.88
2017-05-06T04:22:55.194Z,22.91
2017-05-06T04:23:27.930Z,22.92
2017-05-06T04:24:00.200Z,22.97
2017-05-06T04:24:32.453Z,22.88
2017-05-06T04:25:04.716Z,22.92
2017-05-06T04:25:36.960Z,22.91
2017-05-06T04:26:09.232Z,22.91
2017-05-06T04:26:41.486Z,22.96
2017-05-06T04:27:13.750Z,23.06
2017-05-06T04:27:45.996Z,22.97
2017-05-06T04:28:18.365Z,23
2017-05-06T04:28:51.857Z,23.03
2017-05-06T04:29:24.121Z,23
2017-05-06T04:29:56.357Z,22.99
2017-05-06T04:30:28.658Z,22.94
2017-05-06T04:31:00.934Z,23.03
2017-05-06T04:31:33.190Z,23.04
2017-05-06T04:32:06.418Z,22.99
2017-05-06T04:32:38.729Z,22.97
2017-05-06T04:33:11.009Z,23.04
2017-05-06T04:33:43.275Z,23
2017-05-06T04:34:15.564Z,23
2017-05-06T04:34:47.880Z,23.07
2017-05-06T04:35:20.173Z,23.04
2017-05-06T04:35:52.466Z,23.03
2017-05-06T04:36:24.768Z,23.06
2017-05-06T04:36:57.088Z,23
2017-05-06T04:37:29.411Z,23.01
2017-05-06T04:38:01.707Z,23.06
2017-05-06T04:38:34.005Z,23.06
2017-05-06T04:39:06.323Z,23.07
2017-05-06T04:39:38.606Z,23.07
2017-05-06T04:40:10.896Z,23.01
2017-05-06T04:40:43.174Z,23.06
2017-05-06T04:41:15.461Z,23.03
2017-05-06T04:41:47.774Z,23.03
2017-05-06T04:42:20.069Z,23.04
2017-05-06T04:42:52.325Z,23.04
2017-05-06T04:43:24.572Z,23.06
2017-05-06T04:43:56.828Z,23.12
2017-05-06T04:44:29.080Z,23.09
2017-05-06T04:45:01.332Z,23.04
2017-05-06T04:45:34.533Z,23.12
2017-05-06T04:46:06.828Z,23.01
2017-05-06T04:46:39.868Z,23.06
2017-05-06T04:47:12.126Z,23.12
2017-05-06T04:47:44.385Z,23.01
2017-05-06T04:48:16.656Z,23.1
2017-05-06T04:48:48.913Z,23.07
2017-05-06T04:49:21.160Z,23.07
2017-05-06T04:49:54.420Z,23.12
2017-05-06T04:50:26.736Z,23.06
2017-05-06T04:50:59.006Z,23.07
2017-05-06T04:51:31.302Z,23.16
2017-05-06T04:52:03.542Z,23.03
2017-05-06T04:52:35.836Z,23.06
2017-05-06T04:53:08.131Z,23.09
2017-05-06T04:53:40.441Z,23.06
2017-05-06T04:54:12.781Z,23.03
2017-05-06T04:54:45.081Z,23.06
2017-05-06T04:55:17.376Z,23.09
2017-05-06T04:55:49.652Z,23.04
2017-05-06T04:56:21.942Z,23.09
2017-05-06T04:56:54.240Z,23.07
2017-05-06T04:57:26.532Z,23.1
2017-05-06T04:57:58.829Z,23.07
2017-05-06T04:58:31.124Z,23.06
2017-05-06T04:59:03.411Z,23.12
2017-05-06T04:59:35.705Z,23.09
2017-05-06T05:00:07.986Z,23.07
2017-05-06T05:00:40.279Z,23.09
2017-05-06T05:01:12.585Z,23.09
2017-05-06T05:01:44.888Z,23.03
2017-05-06T05:02:17.205Z,23.03
2017-05-06T05:02:49.476Z,23.1
2017-05-06T05:03:21.764Z,23.1
2017-05-06T05:03:54.015Z,23.1
2017-05-06T05:04:26.274Z,23.06
2017-05-06T05:04:58.550Z,23.16
2017-05-06T05:05:31.455Z,23.06
2017-05-06T05:06:03.759Z,23.21
2017-05-06T05:06:36.002Z,23.18
2017-05-06T05:07:08.393Z,23.18
2017-05-06T05:07:40.650Z,23.15
2017-05-06T05:08:12.907Z,23.21
2017-05-06T05:08:45.190Z,23.21
2017-05-06T05:09:17.438Z,23.21
2017-05-06T05:09:49.695Z,23.19
2017-05-06T05:10:22.768Z,23.16
2017-05-06T05:10:55.030Z,23.22
2017-05-06T05:11:27.283Z,23.25
2017-05-06T05:12:00.376Z,23.25
2017-05-06T05:12:33.947Z,23.22
2017-05-06T05:13:06.209Z,23.29
2017-05-06T05:13:39.463Z,23.25
2017-05-06T05:14:11.721Z,23.22
2017-05-06T05:14:43.991Z,23.24
2017-05-06T05:15:16.237Z,23.28
2017-05-06T05:15:48.491Z,23.24
2017-05-06T05:16:20.736Z,23.28
2017-05-06T05:16:52.985Z,23.24
2017-05-06T05:17:25.231Z,23.26
2017-05-06T05:17:57.491Z,23.35
2017-05-06T05:18:29.778Z,23.24
2017-05-06T05:19:02.037Z,23.24
2017-05-06T05:19:34.275Z,23.26
2017-05-06T05:20:07.486Z,23.18
2017-05-06T05:20:39.746Z,23.26
2017-05-06T05:21:11.999Z,23.32
2017-05-06T05:21:45.392Z,23.34
2017-05-06T05:22:17.647Z,23.25
2017-05-06T05:22:50.768Z,23.34
2017-05-06T05:23:23.009Z,23.38
2017-05-06T05:23:55.261Z,23.34
2017-05-06T05:24:27.528Z,23.28
2017-05-06T05:25:00.341Z,23.38
2017-05-06T05:25:32.618Z,23.28
2017-05-06T05:26:04.908Z,23.26
2017-05-06T05:26:37.165Z,23.38
2017-05-06T05:27:09.435Z,23.4
2017-05-06T05:27:42.377Z,23.32
2017-05-06T05:28:14.657Z,23.38
2017-05-06T05:28:46.893Z,23.38
2017-05-06T05:29:19.146Z,23.37
2017-05-06T05:29:51.394Z,23.41
2017-05-06T05:30:24.389Z,23.37
2017-05-06T05:30:57.283Z,23.35
2017-05-06T05:31:29.548Z,23.38
2017-05-06T05:32:01.811Z,23.38
2017-05-06T05:32:34.061Z,23.4
2017-05-06T05:33:06.315Z,23.4
2017-05-06T05:33:39.308Z,23.4
2017-05-06T05:34:11.568Z,23.4
2017-05-06T05:34:43.826Z,23.4
2017-05-06T05:35:16.189Z,23.44
2017-05-06T05:35:48.466Z,23.42
2017-05-06T05:36:20.742Z,23.38
2017-05-06T05:36:53.020Z,23.38
2017-05-06T05:37:25.286Z,23.37
2017-05-06T05:37:57.548Z,23.41
2017-05-06T05:38:29.940Z,23.38
2017-05-06T05:39:02.189Z,23.32
2017-05-06T05:39:34.431Z,23.41
2017-05-06T05:40:06.674Z,23.34
2017-05-06T05:40:39.890Z,23.37
2017-05-06T05:41:12.146Z,23.4
2017-05-06T05:41:44.938Z,23.41
2017-05-06T05:42:17.212Z,23.4
2017-05-06T05:42:49.453Z,23.37
2017-05-06T05:43:21.707Z,23.41
2017-05-06T05:43:54.796Z,23.4
2017-05-06T05:44:27.046Z,23.37
2017-05-06T05:44:59.287Z,23.35
2017-05-06T05:45:31.525Z,23.42
2017-05-06T05:46:03.755Z,23.34
2017-05-06T05:46:35.999Z,23.41
2017-05-06T05:47:08.905Z,23.42
2017-05-06T05:47:41.163Z,23.4
2017-05-06T05:48:13.412Z,23.4
2017-05-06T05:48:46.392Z,23.4
2017-05-06T05:49:18.652Z,23.4
2017-05-06T05:49:50.899Z,23.44
2017-05-06T05:50:23.141Z,23.4
2017-05-06T05:50:55.505Z,23.41
2017-05-06T05:51:27.759Z,23.47
2017-05-06T05:52:00.011Z,23.4
2017-05-06T05:52:32.289Z,23.47
2017-05-06T05:53:04.576Z,23.44
2017-05-06T05:53:36.863Z,23.44
2017-05-06T05:54:09.138Z,23.45
2017-05-06T05:54:41.421Z,23.41
2017-05-06T05:55:13.696Z,23.47
2017-05-06T05:55:45.979Z,23.45
2017-05-06T05:56:18.264Z,23.47
2017-05-06T05:56:50.553Z,23.44
2017-05-06T05:57:22.845Z,23.42
2017-05-06T05:57:55.142Z,23.44
2017-05-06T05:58:27.442Z,23.44
2017-05-06T05:58:59.709Z,23.47
2017-05-06T05:59:32.041Z,23.44
2017-05-06T06:00:04.351Z,23.45
2017-05-06T06:00:36.654Z,23.45
2017-05-06T06:01:08.948Z,23.45
2017-05-06T06:01:41.259Z,23.47
2017-05-06T06:02:13.556Z,23.48
2017-05-06T06:02:45.827Z,23.45
2017-05-06T06:03:18.127Z,23.44
2017-05-06T06:03:50.419Z,23.48
2017-05-06T06:04:22.722Z,23.5
2017-05-06T06:04:55.008Z,23.45
2017-05-06T06:05:27.338Z,23.52
2017-05-06T06:05:59.623Z,23.45
2017-05-06T06:06:31.918Z,23.45
2017-05-06T06:07:04.214Z,23.45
2017-05-06T06:07:36.500Z,23.57
2017-05-06T06:08:08.795Z,23.42
2017-05-06T06:08:41.081Z,23.42
2017-05-06T06:09:13.370Z,23.5
2017-05-06T06:09:45.646Z,23.48
2017-05-06T06:10:17.927Z,23.47
2017-05-06T06:10:50.218Z,23.56
2017-05-06T06:11:22.506Z,23.45
2017-05-06T06:11:54.790Z,23.45
2017-05-06T06:12:27.084Z,23.47
2017-05-06T06:12:59.374Z,23.47
2017-05-06T06:13:31.668Z,23.45
2017-05-06T06:14:03.947Z,23.48
2017-05-06T06:14:36.247Z,23.48
2017-05-06T06:15:08.550Z,23.47
2017-05-06T06:15:40.834Z,23.47
2017-05-06T06:16:13.123Z,23.42
2017-05-06T06:16:45.407Z,23.48
2017-05-06T06:17:17.704Z,23.47
2017-05-06T06:17:50.003Z,23.47
2017-05-06T06:18:22.291Z,23.47
2017-05-06T06:18:54.578Z,23.48
2017-05-06T06:19:26.893Z,23.5
2017-05-06T06:19:59.195Z,23.48
2017-05-06T06:20:31.495Z,23.48
2017-05-06T06:21:03.769Z,23.6
2017-05-06T06:21:36.065Z,23.55
2017-05-06T06:22:08.351Z,23.5
2017-05-06T06:22:40.643Z,23.53
2017-05-06T06:23:12.941Z,23.59
2017-05-06T06:23:45.233Z,23.5
2017-05-06T06:24:17.516Z,23.56
2017-05-06T06:24:49.790Z,23.53
2017-05-06T06:25:22.073Z,23.52
2017-05-06T06:25:54.367Z,23.53
2017-05-06T06:26:26.665Z,23.5
2017-05-06T06:26:58.951Z,23.6
2017-05-06T06:27:31.244Z,23.56
2017-05-06T06:28:03.544Z,23.53
2017-05-06T06:28:35.828Z,23.56
2017-05-06T06:29:08.102Z,23.56
2017-05-06T06:29:40.406Z,23.56
2017-05-06T06:30:12.702Z,23.53
2017-05-06T06:30:45.013Z,23.56
2017-05-06T06:31:17.301Z,23.55
2017-05-06T06:31:49.586Z,23.55
2017-05-06T06:32:21.891Z,23.59
2017-05-06T06:32:54.186Z,23.57
2017-05-06T06:33:26.480Z,23.6
2017-05-06T06:33:58.773Z,23.63
2017-05-06T06:34:31.065Z,23.55
2017-05-06T06:35:03.362Z,23.62
2017-05-06T06:35:35.656Z,23.62
2017-05-06T06:36:07.937Z,23.57
2017-05-06T06:36:40.221Z,23.6
2017-05-06T06:37:12.508Z,23.64
2017-05-06T06:37:44.806Z,23.6
2017-05-06T06:38:17.107Z,23.63
2017-05-06T06:38:49.403Z,23.62
2017-05-06T06:39:21.702Z,23.59
2017-05-06T06:39:53.993Z,23.66
2017-05-06T06:40:26.287Z,23.63
2017-05-06T06:40:58.568Z,23.62
2017-05-06T06:41:30.858Z,23.63
2017-05-06T06:42:03.146Z,23.66
2017-05-06T06:42:36.481Z,23.67
2017-05-06T06:43:08.758Z,23.63
2017-05-06T06:43:41.009Z,23.57
2017-05-06T06:44:13.259Z,23.66
2017-05-06T06:44:45.517Z,23.74
2017-05-06T06:45:18.427Z,23.64
2017-05-06T06:45:50.676Z,23.72
2017-05-06T06:46:22.934Z,23.71
2017-05-06T06:46:55.180Z,23.67
2017-05-06T06:47:27.443Z,23.72
2017-05-06T06:48:00.455Z,23.72
2017-05-06T06:48:32.824Z,23.75
2017-05-06T06:49:05.098Z,23.71
2017-05-06T06:49:37.368Z,23.72
2017-05-06T06:50:09.618Z,23.67
2017-05-06T06:50:41.851Z,23.66
2017-05-06T06:51:14.135Z,23.71
2017-05-06T06:51:46.457Z,23.67
2017-05-06T06:52:18.722Z,23.71
2017-05-06T06:52:51.013Z,23.72
2017-05-06T06:53:23.304Z,23.75
2017-05-06T06:53:55.574Z,23.77
2017-05-06T06:54:27.862Z,23.78
2017-05-06T06:55:00.160Z,23.82
2017-05-06T06:55:32.462Z,23.74
2017-05-06T06:56:04.758Z,23.84
2017-05-06T06:56:37.055Z,23.75
2017-05-06T06:57:09.359Z,23.79
2017-05-06T06:57:41.650Z,23.82